createdAt,value
2019-03-24T00:02:22.378Z,103011.77
2019-03-24T00:05:15.504Z,103011.23
2019-03-24T00:08:07.598Z,103007.03
2019-03-24T00:11:00.019Z,103000.75
2019-03-24T00:13:52.321Z,103006.09
2019-03-24T00:16:44.535Z,103012.97
2019-03-24T00:19:36.779Z,103013.08
2019-03-24T00:22:29.152Z,103012.75
2019-03-24T00:25:21.698Z,103016.70
2019-03-24T00:28:14.307Z,103010.41
2019-03-24T00:31:06.933Z,103005.78
2019-03-24T00:33:59.391Z,103009.77
2019-03-24T00:36:51.550Z,103007.03
2019-03-24T00:39:43.947Z,103006.51
2019-03-24T00:42:36.479Z,103006.91
2019-03-24T00:45:36.486Z,103009.30
2019-03-24T00:48:22.615Z,103004.89
2019-03-24T00:51:15.840Z,103002.06
2019-03-24T00:54:08.207Z,103002.91
2019-03-24T00:57:01.226Z,103001.39
2019-03-24T00:59:53.891Z,102999.11
2019-03-24T01:02:46.385Z,102992.17
2019-03-24T01:05:39.447Z,102990.70
2019-03-24T01:08:31.862Z,102990.05
2019-03-24T01:11:24.303Z,102990.36
2019-03-24T01:14:16.549Z,102981.75
2019-03-24T01:17:08.821Z,102982.14
2019-03-24T01:20:02.017Z,102987.09
2019-03-24T01:22:55.012Z,102987.83
2019-03-24T01:25:47.837Z,102990.91
2019-03-24T01:28:40.369Z,102987.32
2019-03-24T01:31:32.477Z,102984.80
2019-03-24T01:34:26.727Z,102980.73
2019-03-24T01:37:18.907Z,102974.64
2019-03-24T01:40:11.231Z,102970.91
2019-03-24T01:43:03.462Z,102968.94
2019-03-24T01:45:58.751Z,102964.81
2019-03-24T01:48:50.651Z,102965.29
2019-03-24T01:51:43.088Z,102965.13
2019-03-24T01:54:36.368Z,102962.89
2019-03-24T01:57:28.790Z,102965.70
2019-03-24T02:00:21.160Z,102960.69
2019-03-24T02:03:13.730Z,102959.44
2019-03-24T02:06:05.924Z,102952.20
2019-03-24T02:08:58.310Z,102945.83
2019-03-24T02:11:50.933Z,102939.13
2019-03-24T02:14:43.502Z,102942.23
2019-03-24T02:17:36.004Z,102946.81
2019-03-24T02:20:28.440Z,102946.02
2019-03-24T02:23:21.083Z,102944.90
2019-03-24T02:26:13.241Z,102947.03
2019-03-24T02:29:05.710Z,102950.00
2019-03-24T02:31:57.938Z,102940.20
2019-03-24T02:34:50.326Z,102941.95
2019-03-24T02:37:42.637Z,102939.06
2019-03-24T02:40:35.245Z,102941.71
2019-03-24T02:43:27.681Z,102938.54
2019-03-24T02:46:24.533Z,102936.33
2019-03-24T02:49:14.269Z,102935.78
2019-03-24T02:52:06.419Z,102938.80
2019-03-24T02:54:59.257Z,102929.91
2019-03-24T02:57:51.529Z,102934.89
2019-03-24T03:00:44.553Z,102934.41
2019-03-24T03:03:37.006Z,102934.83
2019-03-24T03:06:29.366Z,102926.43
2019-03-24T03:09:21.945Z,102932.16
2019-03-24T03:12:14.429Z,102926.37
2019-03-24T03:15:08.649Z,102924.93
2019-03-24T03:18:01.968Z,102924.14
2019-03-24T03:20:54.218Z,102920.91
2019-03-24T03:23:46.759Z,102922.30
2019-03-24T03:26:39.121Z,102918.08
2019-03-24T03:29:31.310Z,102913.78
2019-03-24T03:32:23.792Z,102918.84
2019-03-24T03:35:15.999Z,102911.19
2019-03-24T03:38:08.348Z,102914.58
2019-03-24T03:41:00.488Z,102916.32
2019-03-24T03:43:52.763Z,102923.52
2019-03-24T03:46:52.443Z,102920.02
2019-03-24T03:49:39.931Z,102919.09
2019-03-24T03:52:32.924Z,102911.88
2019-03-24T03:55:25.054Z,102912.20
2019-03-24T03:58:17.074Z,102907.34
2019-03-24T04:01:09.830Z,102907.26
2019-03-24T04:04:02.424Z,102903.24
2019-03-24T04:06:54.823Z,102905.65
2019-03-24T04:09:47.079Z,102902.73
2019-03-24T04:12:39.652Z,102900.33
2019-03-24T04:15:32.879Z,102894.45
2019-03-24T04:18:25.601Z,102892.50
2019-03-24T04:21:17.828Z,102886.47
2019-03-24T04:24:10.240Z,102880.83
2019-03-24T04:27:03.158Z,102888.25
2019-03-24T04:29:55.745Z,102896.28
2019-03-24T04:32:48.898Z,102887.14
2019-03-24T04:35:41.565Z,102890.09
2019-03-24T04:38:34.150Z,102887.43
2019-03-24T04:41:26.599Z,102888.35
2019-03-24T04:44:20.383Z,102887.14
2019-03-24T04:47:16.765Z,102888.59
2019-03-24T04:50:08.656Z,102882.16
2019-03-24T04:53:01.228Z,102879.55
2019-03-24T04:55:54.346Z,102879.95
2019-03-24T04:58:47.236Z,102878.28
2019-03-24T05:01:39.547Z,102884.23
2019-03-24T05:04:32.051Z,102883.27
2019-03-24T05:07:25.373Z,102889.38
2019-03-24T05:10:28.577Z,102885.72
2019-03-24T05:13:22.193Z,102884.31
2019-03-24T05:16:14.769Z,102886.31
2019-03-24T05:19:07.763Z,102888.44
2019-03-24T05:22:00.018Z,102887.01
2019-03-24T05:24:52.646Z,102891.33
2019-03-24T05:27:45.172Z,102889.58
2019-03-24T05:30:37.728Z,102885.80
2019-03-24T05:33:29.835Z,102892.77
2019-03-24T05:36:23.526Z,102898.41
2019-03-24T05:39:15.988Z,102889.51
2019-03-24T05:42:08.179Z,102882.58
2019-03-24T05:45:00.417Z,102887.59
2019-03-24T05:47:52.819Z,102893.56
2019-03-24T05:50:45.061Z,102889.17
2019-03-24T05:53:37.467Z,102874.63
2019-03-24T05:56:29.708Z,102872.42
2019-03-24T05:59:21.961Z,102872.75
2019-03-24T06:02:15.018Z,102879.03
2019-03-24T06:05:07.284Z,102879.48
2019-03-24T06:07:59.875Z,102876.72
2019-03-24T06:10:52.092Z,102879.64
2019-03-24T06:13:44.107Z,102885.41
2019-03-24T06:16:38.000Z,102879.22
2019-03-24T06:19:30.722Z,102876.05
2019-03-24T06:22:23.068Z,102873.13
2019-03-24T06:25:15.351Z,102858.90
2019-03-24T06:28:07.833Z,102868.20
2019-03-24T06:31:01.738Z,102861.58
2019-03-24T06:33:54.284Z,102859.03
2019-03-24T06:36:46.451Z,102846.58
2019-03-24T06:39:38.891Z,102833.73
2019-03-24T06:42:31.067Z,102826.33
2019-03-24T06:45:28.292Z,102825.50
2019-03-24T06:48:17.262Z,102824.94
2019-03-24T06:51:09.435Z,102825.47
2019-03-24T06:54:01.519Z,102825.72
2019-03-24T06:56:54.089Z,102834.56
2019-03-24T06:59:46.936Z,102843.74
2019-03-24T07:02:39.268Z,102835.81
2019-03-24T07:05:31.553Z,102840.64
2019-03-24T07:08:23.751Z,102831.55
2019-03-24T07:11:15.926Z,102822.87
2019-03-24T07:14:08.443Z,102832.67
2019-03-24T07:17:00.664Z,102841.70
2019-03-24T07:19:53.167Z,102843.73
2019-03-24T07:22:45.558Z,102842.35
2019-03-24T07:25:38.252Z,102842.83
2019-03-24T07:28:31.950Z,102840.50
2019-03-24T07:31:24.175Z,102852.48
2019-03-24T07:34:16.707Z,102852.00
2019-03-24T07:37:09.131Z,102860.97
2019-03-24T07:40:02.673Z,102863.00
2019-03-24T07:42:55.797Z,102861.43
2019-03-24T07:45:48.017Z,102869.03
2019-03-24T07:48:40.344Z,102868.13
2019-03-24T07:51:32.406Z,102869.52
2019-03-24T07:54:24.611Z,102873.23
2019-03-24T07:57:17.131Z,102881.57
2019-03-24T08:00:10.823Z,102890.92
2019-03-24T08:03:03.753Z,102884.59
2019-03-24T08:05:56.769Z,102885.69
2019-03-24T08:08:48.877Z,102883.34
2019-03-24T08:11:41.097Z,102892.09
2019-03-24T08:14:33.184Z,102894.06
2019-03-24T08:17:26.173Z,102890.14
2019-03-24T08:20:18.487Z,102895.16
2019-03-24T08:23:12.556Z,102886.53
2019-03-24T08:26:04.964Z,102884.55
2019-03-24T08:28:58.565Z,102890.16
2019-03-24T08:31:50.833Z,102893.38
2019-03-24T08:34:42.999Z,102890.42
2019-03-24T08:37:35.204Z,102894.77
2019-03-24T08:40:27.623Z,102900.11
2019-03-24T08:43:20.022Z,102898.67
2019-03-24T08:46:12.184Z,102894.47
2019-03-24T08:49:05.049Z,102886.39
2019-03-24T08:51:57.203Z,102886.11
2019-03-24T08:54:49.461Z,102888.03
2019-03-24T08:57:41.812Z,102882.38
2019-03-24T09:00:34.592Z,102884.36
2019-03-24T09:03:26.993Z,102876.38
2019-03-24T09:06:20.554Z,102865.70
2019-03-24T09:09:13.024Z,102865.38
2019-03-24T09:12:05.403Z,102847.16
2019-03-24T09:14:57.756Z,102835.79
2019-03-24T09:17:50.202Z,102836.41
2019-03-24T09:20:42.379Z,102826.14
2019-03-24T09:23:34.652Z,102809.86
2019-03-24T09:26:27.579Z,102808.09
2019-03-24T09:29:20.227Z,102809.42
2019-03-24T09:32:13.453Z,102803.52
2019-03-24T09:35:07.579Z,102806.72
2019-03-24T09:38:00.285Z,102807.05
2019-03-24T09:40:52.631Z,102811.23
2019-03-24T09:43:44.870Z,102804.52
2019-03-24T09:46:37.173Z,102810.28
2019-03-24T09:49:29.853Z,102811.10
2019-03-24T09:52:22.937Z,102808.25
2019-03-24T09:55:15.110Z,102814.78
2019-03-24T09:58:07.463Z,102817.55
2019-03-24T10:00:59.855Z,102817.89
2019-03-24T10:03:52.081Z,102811.72
2019-03-24T10:06:44.197Z,102812.08
2019-03-24T10:09:36.973Z,102818.64
2019-03-24T10:12:29.228Z,102815.86
2019-03-24T10:15:21.357Z,102820.77
2019-03-24T10:18:13.935Z,102827.88
2019-03-24T10:21:06.341Z,102827.05
2019-03-24T10:23:58.598Z,102835.14
2019-03-24T10:26:50.945Z,102828.95
2019-03-24T10:29:43.201Z,102837.08
2019-03-24T10:32:35.492Z,102837.31
2019-03-24T10:35:27.771Z,102826.72
2019-03-24T10:38:20.193Z,102829.46
2019-03-24T10:41:12.958Z,102825.81
2019-03-24T10:44:05.488Z,102831.08
2019-03-24T10:46:58.042Z,102830.49
2019-03-24T10:49:50.194Z,102840.00
2019-03-24T10:52:43.233Z,102832.98
2019-03-24T10:55:35.492Z,102837.99
2019-03-24T10:58:28.708Z,102840.87
2019-03-24T11:01:21.196Z,102834.89
2019-03-24T11:04:15.854Z,102834.35
2019-03-24T11:07:07.496Z,102829.33
2019-03-24T11:09:59.945Z,102828.53
2019-03-24T11:12:52.111Z,102829.80
2019-03-24T11:15:44.919Z,102824.37
2019-03-24T11:18:37.297Z,102831.25
2019-03-24T11:21:29.652Z,102833.45
2019-03-24T11:24:21.794Z,102832.26
2019-03-24T11:27:13.963Z,102833.00
2019-03-24T11:30:09.354Z,102834.91
2019-03-24T11:33:02.386Z,102836.25
2019-03-24T11:35:54.953Z,102835.44
2019-03-24T11:38:47.138Z,102831.09
2019-03-24T11:41:39.588Z,102826.07
2019-03-24T11:44:32.129Z,102820.03
2019-03-24T11:47:26.754Z,102823.80
2019-03-24T11:50:18.332Z,102815.87
2019-03-24T11:53:10.807Z,102813.98
2019-03-24T11:56:03.025Z,102808.25
2019-03-24T11:58:55.541Z,102808.34
2019-03-24T12:01:49.230Z,102804.19
2019-03-24T12:04:41.697Z,102799.69
2019-03-24T12:07:34.321Z,102795.47
2019-03-24T12:10:26.697Z,102794.03
2019-03-24T12:13:18.979Z,102788.48
2019-03-24T12:16:11.836Z,102794.62
2019-03-24T12:19:05.614Z,102790.11
2019-03-24T12:21:58.284Z,102785.23
2019-03-24T12:24:50.563Z,102785.05
2019-03-24T12:27:43.254Z,102784.77
2019-03-24T12:30:35.879Z,102790.07
2019-03-24T12:33:29.402Z,102795.92
2019-03-24T12:36:21.777Z,102791.97
2019-03-24T12:39:14.112Z,102784.91
2019-03-24T12:42:06.734Z,102775.38
2019-03-24T12:44:59.092Z,102779.61
2019-03-24T12:47:52.468Z,102774.75
2019-03-24T12:50:44.693Z,102772.64
2019-03-24T12:53:37.025Z,102774.31
2019-03-24T12:56:29.573Z,102771.77
2019-03-24T12:59:21.938Z,102766.86
2019-03-24T13:02:14.465Z,102764.66
2019-03-24T13:05:07.980Z,102761.94
2019-03-24T13:08:11.212Z,102754.19
2019-03-24T13:11:03.825Z,102751.72
2019-03-24T13:13:56.208Z,102741.88
2019-03-24T13:16:48.566Z,102738.41
2019-03-24T13:19:41.052Z,102739.80
2019-03-24T13:22:33.215Z,102737.42
2019-03-24T13:25:26.025Z,102729.61
2019-03-24T13:28:18.175Z,102720.64
2019-03-24T13:31:10.552Z,102722.29
2019-03-24T13:34:02.942Z,102714.87
2019-03-24T13:36:55.125Z,102708.83
2019-03-24T13:39:48.004Z,102705.23
2019-03-24T13:42:40.537Z,102691.03
2019-03-24T13:45:32.841Z,102693.98
2019-03-24T13:48:25.106Z,102684.61
2019-03-24T13:51:17.702Z,102685.38
2019-03-24T13:54:10.317Z,102682.03
2019-03-24T13:57:03.594Z,102683.07
2019-03-24T13:59:55.812Z,102678.20
2019-03-24T14:02:48.228Z,102671.98
2019-03-24T14:05:40.562Z,102668.07
2019-03-24T14:08:33.523Z,102665.14
2019-03-24T14:11:25.666Z,102653.48
2019-03-24T14:14:19.112Z,102661.95
2019-03-24T14:17:11.703Z,102661.16
2019-03-24T14:20:04.245Z,102655.07
2019-03-24T14:22:56.576Z,102652.11
2019-03-24T14:25:48.730Z,102648.94
2019-03-24T14:28:42.145Z,102648.82
2019-03-24T14:31:34.377Z,102647.48
2019-03-24T14:34:26.492Z,102640.44
2019-03-24T14:37:18.800Z,102640.23
2019-03-24T14:40:12.245Z,102645.02
2019-03-24T14:43:06.759Z,102641.48
2019-03-24T14:45:59.525Z,102641.73
2019-03-24T14:48:52.538Z,102638.73
2019-03-24T14:51:44.740Z,102647.70
2019-03-24T14:54:37.158Z,102645.15
2019-03-24T14:57:29.465Z,102641.16
2019-03-24T15:00:37.517Z,102640.52
2019-03-24T15:03:29.873Z,102643.43
2019-03-24T15:06:22.190Z,102655.28
2019-03-24T15:09:14.430Z,102644.27
2019-03-24T15:12:06.571Z,102634.80
2019-03-24T15:14:59.112Z,102634.95
2019-03-24T15:17:51.660Z,102626.95
2019-03-24T15:20:44.193Z,102622.26
2019-03-24T15:23:36.452Z,102623.16
2019-03-24T15:26:29.186Z,102622.81
2019-03-24T15:29:21.563Z,102620.82
2019-03-24T15:32:13.741Z,102619.11
2019-03-24T15:35:06.113Z,102619.40
2019-03-24T15:38:08.139Z,102624.00
2019-03-24T15:40:53.988Z,102619.52
2019-03-24T15:43:47.223Z,102620.20
2019-03-24T15:46:39.589Z,102616.18
2019-03-24T15:49:32.142Z,102624.86
2019-03-24T15:52:24.651Z,102626.89
2019-03-24T15:55:17.134Z,102633.93
2019-03-24T15:58:09.398Z,102635.90
2019-03-24T16:01:01.787Z,102626.23
2019-03-24T16:03:54.108Z,102635.24
2019-03-24T16:06:47.203Z,102651.02
2019-03-24T16:09:39.340Z,102647.94
2019-03-24T16:12:31.602Z,102650.70
2019-03-24T16:15:23.998Z,102656.63
2019-03-24T16:18:16.198Z,102654.80
2019-03-24T16:21:08.413Z,102660.95
2019-03-24T16:24:00.903Z,102664.85
2019-03-24T16:26:53.303Z,102658.58
2019-03-24T16:29:46.425Z,102656.25
2019-03-24T16:32:38.580Z,102659.77
2019-03-24T16:35:30.767Z,102653.54
2019-03-24T16:38:23.158Z,102650.18
2019-03-24T16:41:15.400Z,102659.58
2019-03-24T16:44:08.326Z,102668.05
2019-03-24T16:47:00.471Z,102665.82
2019-03-24T16:49:52.979Z,102657.16
2019-03-24T16:52:45.214Z,102663.16
2019-03-24T16:55:37.369Z,102667.69
2019-03-24T16:58:30.129Z,102664.97
2019-03-24T17:01:22.450Z,102656.56
2019-03-24T17:04:15.028Z,102661.33
2019-03-24T17:07:07.344Z,102661.19
2019-03-24T17:09:59.793Z,102658.17
2019-03-24T17:12:52.564Z,102659.30
2019-03-24T17:15:45.644Z,102657.89
2019-03-24T17:18:38.113Z,102648.04
2019-03-24T17:21:30.699Z,102656.73
2019-03-24T17:24:23.091Z,102656.87
2019-03-24T17:27:15.518Z,102655.36
2019-03-24T17:30:10.896Z,102663.27
2019-03-24T17:33:04.602Z,102661.87
2019-03-24T17:35:57.086Z,102669.45
2019-03-24T17:38:49.228Z,102672.05
2019-03-24T17:41:41.729Z,102668.88
2019-03-24T17:44:34.734Z,102670.73
2019-03-24T17:47:27.225Z,102669.34
2019-03-24T17:50:19.982Z,102668.68
2019-03-24T17:53:12.271Z,102678.41
2019-03-24T17:56:04.944Z,102682.99
2019-03-24T17:58:58.247Z,102677.94
2019-03-24T18:01:51.282Z,102677.78
2019-03-24T18:04:43.572Z,102684.05
2019-03-24T18:07:36.520Z,102681.97
2019-03-24T18:10:28.951Z,102680.97
2019-03-24T18:13:21.387Z,102681.63
2019-03-24T18:16:13.499Z,102686.80
2019-03-24T18:19:06.277Z,102687.56
2019-03-24T18:21:58.297Z,102691.29
2019-03-24T18:24:50.758Z,102691.34
2019-03-24T18:27:44.179Z,102684.28
2019-03-24T18:30:36.567Z,102682.82
2019-03-24T18:33:29.029Z,102683.01
2019-03-24T18:36:21.293Z,102681.37
2019-03-24T18:39:13.718Z,102673.86
2019-03-24T18:42:06.110Z,102677.15
2019-03-24T18:44:58.498Z,102679.93
2019-03-24T18:47:50.932Z,102682.41
2019-03-24T18:50:43.274Z,102681.25
2019-03-24T18:53:35.849Z,102680.06
2019-03-24T18:56:28.965Z,102676.36
2019-03-24T18:59:21.277Z,102671.29
2019-03-24T19:02:13.939Z,102671.67
2019-03-24T19:05:06.813Z,102672.27
2019-03-24T19:07:59.199Z,102669.67
2019-03-24T19:10:52.564Z,102663.50
2019-03-24T19:13:44.778Z,102660.27
2019-03-24T19:16:36.875Z,102660.73
2019-03-24T19:19:29.095Z,102657.56
2019-03-24T19:22:21.960Z,102655.27
2019-03-24T19:25:14.402Z,102649.91
2019-03-24T19:28:07.925Z,102652.33
2019-03-24T19:31:00.972Z,102650.52
2019-03-24T19:33:53.451Z,102648.52
2019-03-24T19:36:45.827Z,102657.03
2019-03-24T19:39:38.166Z,102654.12
2019-03-24T19:42:31.185Z,102659.29
2019-03-24T19:45:24.093Z,102655.29
2019-03-24T19:48:16.523Z,102659.81
2019-03-24T19:51:09.000Z,102664.77
2019-03-24T19:54:01.281Z,102668.50
2019-03-24T19:56:55.046Z,102668.94
2019-03-24T19:59:47.615Z,102669.09
2019-03-24T20:02:40.425Z,102673.86
2019-03-24T20:05:32.653Z,102667.81
2019-03-24T20:08:25.714Z,102670.67
2019-03-24T20:11:17.956Z,102679.39
2019-03-24T20:14:10.099Z,102674.62
2019-03-24T20:17:02.317Z,102680.06
2019-03-24T20:19:54.635Z,102684.13
2019-03-24T20:22:55.865Z,102687.95
2019-03-24T20:25:41.294Z,102682.55
2019-03-24T20:28:33.630Z,102678.31
2019-03-24T20:31:25.892Z,102675.69
2019-03-24T20:34:18.823Z,102675.81
2019-03-24T20:37:10.971Z,102668.24
2019-03-24T20:40:03.381Z,102671.70
2019-03-24T20:42:55.559Z,102659.50
2019-03-24T20:45:47.637Z,102654.73
2019-03-24T20:48:39.794Z,102648.47
2019-03-24T20:51:31.882Z,102658.45
2019-03-24T20:54:24.365Z,102659.64
2019-03-24T20:57:16.608Z,102661.89
2019-03-24T21:00:10.020Z,102652.61
2019-03-24T21:03:05.903Z,102654.59
2019-03-24T21:05:58.218Z,102655.22
2019-03-24T21:08:50.981Z,102652.53
2019-03-24T21:11:44.026Z,102643.86
2019-03-24T21:14:36.134Z,102648.60
2019-03-24T21:17:28.339Z,102646.59
2019-03-24T21:20:20.517Z,102649.47
2019-03-24T21:23:12.699Z,102641.40
2019-03-24T21:26:04.817Z,102635.41
2019-03-24T21:28:57.188Z,102642.77
2019-03-24T21:31:49.371Z,102640.06
2019-03-24T21:34:41.838Z,102639.01
2019-03-24T21:37:34.018Z,102636.07
2019-03-24T21:40:26.904Z,102633.84
2019-03-24T21:43:19.751Z,102630.11
2019-03-24T21:46:12.137Z,102636.34
2019-03-24T21:49:05.096Z,102634.94
2019-03-24T21:51:57.512Z,102634.81
2019-03-24T21:54:50.002Z,102636.19
2019-03-24T21:57:42.229Z,102634.75
2019-03-24T22:00:36.329Z,102632.78
2019-03-24T22:03:28.545Z,102625.63
2019-03-24T22:06:21.115Z,102617.80
2019-03-24T22:09:13.418Z,102621.03
2019-03-24T22:12:05.828Z,102618.73
2019-03-24T22:14:58.040Z,102620.49
2019-03-24T22:17:50.421Z,102619.70
2019-03-24T22:20:48.945Z,102617.98
2019-03-24T22:23:37.505Z,102611.91
2019-03-24T22:26:30.383Z,102607.36
2019-03-24T22:29:22.600Z,102601.23
2019-03-24T22:32:14.801Z,102606.04
2019-03-24T22:35:07.155Z,102601.14
2019-03-24T22:37:59.370Z,102597.77
2019-03-24T22:40:51.841Z,102599.43
2019-03-24T22:43:43.997Z,102595.70
2019-03-24T22:46:38.178Z,102588.91
2019-03-24T22:49:30.585Z,102581.44
2019-03-24T22:52:22.976Z,102577.73
2019-03-24T22:55:15.307Z,102575.59
2019-03-24T22:58:07.889Z,102577.92
2019-03-24T23:01:00.787Z,102572.48
2019-03-24T23:03:54.552Z,102570.44
2019-03-24T23:06:46.704Z,102563.44
2019-03-24T23:09:38.928Z,102563.23
2019-03-24T23:12:31.190Z,102557.47
2019-03-24T23:15:23.476Z,102564.19
2019-03-24T23:18:15.974Z,102560.73
2019-03-24T23:21:08.131Z,102560.42
2019-03-24T23:24:00.586Z,102553.20
2019-03-24T23:26:52.842Z,102554.98
2019-03-24T23:29:45.055Z,102550.31
2019-03-24T23:32:37.208Z,102554.63
2019-03-24T23:35:30.186Z,102550.51
2019-03-24T23:38:22.969Z,102543.94
2019-03-24T23:41:15.150Z,102547.70
2019-03-24T23:44:07.802Z,102540.78
2019-03-24T23:47:00.294Z,102540.45
2019-03-24T23:49:52.467Z,102540.10
2019-03-24T23:52:44.838Z,102536.23
2019-03-24T23:55:37.079Z,102535.81
2019-03-24T23:58:40.182Z,102530.33
